createdAt,value
2019-05-30T00:00:43.171Z,0.00
2019-05-30T00:01:43.172Z,0.00
2019-05-30T00:02:43.191Z,0.00
2019-05-30T00:03:43.139Z,0.00
2019-05-30T00:04:43.130Z,0.00
2019-05-30T00:05:43.129Z,0.00
2019-05-30T00:06:43.129Z,0.00
2019-05-30T00:07:43.099Z,0.00
2019-05-30T00:08:43.128Z,0.00
2019-05-30T00:09:43.082Z,0.00
2019-05-30T00:10:43.078Z,0.00
2019-05-30T00:11:43.055Z,0.00
2019-05-30T00:12:43.088Z,0.00
2019-05-30T00:13:43.038Z,0.00
2019-05-30T00:14:43.017Z,0.00
2019-05-30T00:15:43.018Z,0.00
2019-05-30T00:16:43.020Z,0.00
2019-05-30T00:17:42.997Z,0.00
2019-05-30T00:18:43.026Z,0.00
2019-05-30T00:19:42.991Z,0.00
2019-05-30T00:20:42.955Z,0.00
2019-05-30T00:21:42.952Z,0.00
2019-05-30T00:22:42.936Z,0.00
2019-05-30T00:23:42.923Z,0.00
2019-05-30T00:24:42.953Z,0.00
2019-05-30T00:25:42.907Z,0.00
2019-05-30T00:26:42.894Z,0.00
2019-05-30T00:27:42.919Z,0.00
2019-05-30T00:28:42.912Z,0.00
2019-05-30T00:29:42.872Z,0.00
2019-05-30T00:30:42.893Z,0.00
2019-05-30T00:31:42.842Z,0.00
2019-05-30T00:32:42.831Z,0.00
2019-05-30T00:33:42.820Z,0.00
2019-05-30T00:34:42.809Z,0.00
2019-05-30T00:35:42.806Z,0.00
2019-05-30T00:36:42.827Z,0.00
2019-05-30T00:37:42.779Z,0.00
2019-05-30T00:38:42.769Z,0.00
2019-05-30T00:39:42.757Z,0.00
2019-05-30T00:40:42.751Z,0.00
2019-05-30T00:41:42.729Z,0.00
2019-05-30T00:42:42.766Z,0.00
2019-05-30T00:43:42.707Z,0.00
2019-05-30T00:44:42.708Z,0.00
2019-05-30T00:45:42.689Z,0.00
2019-05-30T00:46:42.678Z,0.00
2019-05-30T00:47:42.705Z,0.00
2019-05-30T00:48:42.688Z,0.00
2019-05-30T00:49:42.654Z,0.00
2019-05-30T00:50:42.637Z,0.00
2019-05-30T00:51:42.635Z,0.00
2019-05-30T00:52:42.615Z,0.00
2019-05-30T00:53:42.597Z,0.00
2019-05-30T00:54:42.636Z,0.00
2019-05-30T00:55:42.586Z,0.00
2019-05-30T00:56:42.574Z,0.00
2019-05-30T00:57:42.564Z,0.00
2019-05-30T00:58:42.555Z,0.00
2019-05-30T00:59:42.594Z,0.00
2019-05-30T01:00:44.181Z,0.00
2019-05-30T01:01:42.527Z,0.00
2019-05-30T01:02:42.532Z,0.00
2019-05-30T01:03:42.491Z,0.00
2019-05-30T01:04:42.495Z,0.00
2019-05-30T01:05:42.482Z,0.00
2019-05-30T01:06:42.531Z,0.00
2019-05-30T01:07:42.460Z,0.00
2019-05-30T01:08:42.439Z,0.00
2019-05-30T01:09:42.444Z,0.00
2019-05-30T01:10:42.421Z,0.00
2019-05-30T01:11:42.413Z,0.00
2019-05-30T01:12:42.442Z,0.00
2019-05-30T01:13:42.391Z,0.00
2019-05-30T01:14:42.410Z,0.00
2019-05-30T01:15:42.368Z,0.00
2019-05-30T01:16:42.806Z,0.00
2019-05-30T01:17:42.349Z,0.00
2019-05-30T01:18:42.329Z,0.00
2019-05-30T01:19:42.322Z,0.00
2019-05-30T01:20:42.308Z,0.00
2019-05-30T01:21:42.303Z,0.00
2019-05-30T01:22:42.324Z,0.00
2019-05-30T01:23:42.278Z,0.00
2019-05-30T01:24:42.268Z,0.00
2019-05-30T01:25:42.262Z,0.00
2019-05-30T01:26:42.284Z,0.00
2019-05-30T01:27:42.236Z,0.00
2019-05-30T01:28:42.307Z,0.00
2019-05-30T01:29:42.216Z,0.00
2019-05-30T01:30:58.625Z,0.00
2019-05-30T01:31:43.229Z,0.00
2019-05-30T01:32:42.195Z,0.00
2019-05-30T01:33:42.177Z,0.00
2019-05-30T01:34:42.167Z,0.00
2019-05-30T01:35:42.183Z,0.00
2019-05-30T01:36:42.158Z,0.00
2019-05-30T01:37:42.134Z,0.00
2019-05-30T01:38:42.150Z,0.00
2019-05-30T01:39:42.104Z,0.00
2019-05-30T01:40:42.112Z,0.00
2019-05-30T01:41:42.244Z,0.00
2019-05-30T01:42:42.072Z,0.00
2019-05-30T01:43:42.067Z,0.00
2019-05-30T01:44:42.055Z,0.00
2019-05-30T01:45:42.044Z,0.00
2019-05-30T01:46:42.030Z,0.00
2019-05-30T01:47:42.050Z,0.00
2019-05-30T01:48:42.009Z,0.00
2019-05-30T01:49:42.002Z,0.00
2019-05-30T01:50:41.981Z,0.00
2019-05-30T01:51:41.980Z,0.00
2019-05-30T01:52:41.962Z,0.00
2019-05-30T01:53:41.989Z,0.00
2019-05-30T01:54:41.950Z,0.00
2019-05-30T01:55:41.935Z,0.00
2019-05-30T01:56:41.926Z,0.00
2019-05-30T01:57:41.924Z,0.00
2019-05-30T01:58:41.898Z,0.00
2019-05-30T01:59:41.918Z,0.00
2019-05-30T02:00:41.917Z,0.00
2019-05-30T02:01:41.871Z,0.00
2019-05-30T02:02:41.855Z,0.00
2019-05-30T02:03:41.898Z,0.00
2019-05-30T02:04:41.878Z,0.00
2019-05-30T02:05:41.836Z,0.00
2019-05-30T02:06:41.814Z,0.00
2019-05-30T02:07:41.810Z,0.00
2019-05-30T02:08:41.796Z,0.00
2019-05-30T02:09:41.786Z,0.00
2019-05-30T02:10:41.816Z,0.00
2019-05-30T02:11:41.771Z,0.00
2019-05-30T02:12:41.753Z,0.00
2019-05-30T02:13:41.754Z,0.00
2019-05-30T02:14:41.734Z,0.00
2019-05-30T02:15:41.712Z,0.00
2019-05-30T02:16:41.768Z,0.00
2019-05-30T02:17:41.714Z,0.00
2019-05-30T02:18:41.692Z,0.00
2019-05-30T02:19:41.721Z,0.00
2019-05-30T02:20:41.662Z,0.00
2019-05-30T02:21:41.651Z,0.00
2019-05-30T02:22:41.681Z,0.00
2019-05-30T02:23:41.630Z,0.00
2019-05-30T02:24:41.620Z,0.00
2019-05-30T02:25:41.609Z,0.00
2019-05-30T02:26:41.639Z,0.00
2019-05-30T02:27:41.605Z,0.00
2019-05-30T02:28:41.617Z,0.00
2019-05-30T02:29:41.568Z,0.00
2019-05-30T02:30:41.560Z,0.00
2019-05-30T02:31:41.551Z,0.00
2019-05-30T02:32:41.572Z,0.00
2019-05-30T02:33:41.554Z,0.00
2019-05-30T02:34:41.520Z,0.00
2019-05-30T02:35:41.506Z,0.00
2019-05-30T02:36:41.503Z,0.00
2019-05-30T02:37:41.475Z,0.00
2019-05-30T02:38:41.522Z,0.00
2019-05-30T02:39:41.472Z,0.00
2019-05-30T02:40:41.452Z,0.00
2019-05-30T02:41:41.458Z,0.00
2019-05-30T02:42:41.444Z,0.00
2019-05-30T02:43:41.418Z,0.00
2019-05-30T02:44:41.486Z,0.00
2019-05-30T02:45:41.396Z,0.00
2019-05-30T02:46:41.390Z,0.00
2019-05-30T02:47:41.374Z,0.00
2019-05-30T02:48:57.208Z,0.00
2019-05-30T02:49:42.400Z,0.00
2019-05-30T02:50:41.344Z,0.00
2019-05-30T02:51:41.331Z,0.00
2019-05-30T02:52:41.353Z,0.00
2019-05-30T02:53:41.312Z,0.00
2019-05-30T02:54:41.302Z,0.00
2019-05-30T02:55:41.324Z,0.00
2019-05-30T02:56:41.281Z,0.00
2019-05-30T02:57:41.264Z,0.00
2019-05-30T02:58:41.261Z,0.00
2019-05-30T02:59:41.241Z,0.00
2019-05-30T03:00:41.291Z,0.00
2019-05-30T03:01:59.041Z,0.00
2019-05-30T03:02:42.211Z,0.00
2019-05-30T03:03:41.240Z,0.00
2019-05-30T03:04:41.188Z,0.00
2019-05-30T03:05:41.181Z,0.00
2019-05-30T03:06:41.169Z,0.00
2019-05-30T03:07:41.205Z,0.00
2019-05-30T03:08:41.165Z,4.00
2019-05-30T03:09:41.138Z,4.00
2019-05-30T03:10:41.128Z,4.00
2019-05-30T03:11:41.117Z,4.00
2019-05-30T03:12:41.107Z,4.00
2019-05-30T03:13:41.138Z,4.00
2019-05-30T03:14:41.088Z,8.00
2019-05-30T03:15:41.076Z,8.00
2019-05-30T03:16:41.068Z,8.00
2019-05-30T03:17:41.055Z,8.00
2019-05-30T03:18:41.048Z,16.00
2019-05-30T03:19:41.081Z,16.00
2019-05-30T03:20:41.016Z,24.00
2019-05-30T03:21:41.026Z,28.00
2019-05-30T03:22:41.015Z,36.00
2019-05-30T03:23:40.991Z,36.00
2019-05-30T03:24:40.983Z,32.00
2019-05-30T03:25:41.015Z,32.00
2019-05-30T03:26:40.959Z,32.00
2019-05-30T03:27:40.946Z,36.00
2019-05-30T03:28:40.980Z,40.00
2019-05-30T03:29:40.930Z,44.00
2019-05-30T03:30:40.913Z,56.00
2019-05-30T03:31:40.911Z,64.00
2019-05-30T03:33:43.030Z,88.00
2019-05-30T03:34:40.878Z,92.00
2019-05-30T03:35:43.596Z,92.00
2019-05-30T03:36:40.877Z,92.00
2019-05-30T03:37:40.907Z,88.00
2019-05-30T03:38:40.830Z,88.00
2019-05-30T03:39:40.854Z,84.00
2019-05-30T03:40:40.812Z,84.00
2019-05-30T03:41:40.799Z,84.00
2019-05-30T03:42:40.792Z,84.00
2019-05-30T03:43:40.768Z,88.00
2019-05-30T03:44:40.806Z,92.00
2019-05-30T03:45:40.774Z,96.00
2019-05-30T03:46:40.738Z,104.00
2019-05-30T03:47:40.739Z,112.00
2019-05-30T03:48:40.726Z,128.00
2019-05-30T03:49:40.706Z,140.00
2019-05-30T03:50:40.736Z,148.00
2019-05-30T03:51:40.687Z,152.00
2019-05-30T03:52:40.676Z,156.00
2019-05-30T03:53:40.657Z,164.00
2019-05-30T03:54:40.696Z,172.00
2019-05-30T03:55:40.648Z,180.00
2019-05-30T03:56:40.687Z,184.00
2019-05-30T03:57:40.635Z,176.00
2019-05-30T03:58:40.614Z,180.00
2019-05-30T03:59:40.609Z,192.00
2019-05-30T04:00:40.587Z,208.00
2019-05-30T04:01:40.575Z,208.00
2019-05-30T04:02:56.205Z,200.00
2019-05-30T04:03:41.556Z,184.00
2019-05-30T04:04:40.561Z,180.00
2019-05-30T04:05:40.558Z,200.00
2019-05-30T04:06:40.523Z,216.00
2019-05-30T04:07:40.517Z,228.00
2019-05-30T04:08:40.557Z,236.00
2019-05-30T04:09:40.493Z,232.00
2019-05-30T04:10:40.478Z,244.00
2019-05-30T04:11:40.509Z,264.00
2019-05-30T04:12:40.500Z,280.00
2019-05-30T04:13:40.464Z,296.00
2019-05-30T04:14:40.438Z,324.00
2019-05-30T04:15:40.443Z,328.00
2019-05-30T04:16:40.436Z,352.00
2019-05-30T04:17:40.452Z,380.00
2019-05-30T04:18:40.389Z,392.00
2019-05-30T04:19:40.409Z,408.00
2019-05-30T04:20:40.377Z,424.00
2019-05-30T04:21:40.361Z,440.00
2019-05-30T04:22:40.375Z,436.00
2019-05-30T04:23:40.377Z,420.00
2019-05-30T04:24:40.328Z,392.00
2019-05-30T04:25:40.327Z,368.00
2019-05-30T04:26:40.314Z,348.00
2019-05-30T04:27:40.301Z,352.00
2019-05-30T04:28:40.285Z,360.00
2019-05-30T04:29:40.314Z,376.00
2019-05-30T04:30:40.267Z,408.00
2019-05-30T04:31:40.264Z,452.00
2019-05-30T04:32:40.248Z,488.00
2019-05-30T04:33:40.234Z,528.00
2019-05-30T04:34:40.224Z,596.00
2019-05-30T04:35:40.245Z,720.00
2019-05-30T04:36:40.203Z,756.00
2019-05-30T04:37:40.203Z,688.00
2019-05-30T04:38:40.175Z,716.00
2019-05-30T04:39:40.215Z,752.00
2019-05-30T04:40:40.162Z,772.00
2019-05-30T04:41:40.163Z,736.00
2019-05-30T04:42:40.185Z,764.00
2019-05-30T04:43:40.131Z,736.00
2019-05-30T04:44:40.112Z,684.00
2019-05-30T04:45:40.103Z,660.00
2019-05-30T04:46:40.090Z,656.00
2019-05-30T04:47:40.121Z,656.00
2019-05-30T04:48:40.070Z,688.00
2019-05-30T04:49:40.073Z,772.00
2019-05-30T04:50:40.050Z,884.00
2019-05-30T04:51:40.047Z,880.00
2019-05-30T04:52:40.022Z,852.00
2019-05-30T04:53:40.055Z,868.00
2019-05-30T04:54:40.007Z,940.00
2019-05-30T04:55:39.988Z,1144.00
2019-05-30T04:56:39.985Z,1252.00
2019-05-30T04:57:39.969Z,1216.00
2019-05-30T04:58:42.160Z,1292.00
2019-05-30T04:59:39.985Z,1424.00
2019-05-30T05:00:39.949Z,1616.00
2019-05-30T05:01:39.926Z,1820.00
2019-05-30T05:02:39.957Z,1872.00
2019-05-30T05:03:45.739Z,1848.00
2019-05-30T05:04:40.898Z,1780.00
2019-05-30T05:05:39.886Z,1816.00
2019-05-30T05:06:39.875Z,1764.00
2019-05-30T05:07:39.885Z,1760.00
2019-05-30T05:08:39.898Z,2004.00
2019-05-30T05:09:39.843Z,2284.00
2019-05-30T05:10:39.835Z,2564.00
2019-05-30T05:11:39.824Z,2660.00
2019-05-30T05:12:39.813Z,2580.00
2019-05-30T05:13:39.798Z,2552.00
2019-05-30T05:14:39.833Z,2424.00
2019-05-30T05:15:39.782Z,2304.00
2019-05-30T05:16:39.791Z,2164.00
2019-05-30T05:17:39.770Z,2080.00
2019-05-30T05:18:39.754Z,2072.00
2019-05-30T05:19:39.781Z,1992.00
2019-05-30T05:20:39.737Z,1896.00
2019-05-30T05:21:39.730Z,1944.00
2019-05-30T05:22:40.913Z,2128.00
2019-05-30T05:23:39.692Z,2332.00
2019-05-30T05:24:39.689Z,2628.00
2019-05-30T05:25:39.709Z,3064.00
2019-05-30T05:26:39.659Z,3272.00
2019-05-30T05:27:39.671Z,3368.00
2019-05-30T05:28:39.686Z,3500.00
2019-05-30T05:29:39.627Z,3668.00
2019-05-30T05:30:39.697Z,3688.00
2019-05-30T05:31:39.656Z,3504.00
2019-05-30T05:32:39.598Z,3528.00
2019-05-30T05:33:55.486Z,3544.00
2019-05-30T05:34:40.584Z,3304.00
2019-05-30T05:35:39.734Z,3092.00
2019-05-30T05:36:39.546Z,3036.00
2019-05-30T05:37:39.579Z,3020.00
2019-05-30T05:38:39.543Z,3064.00
2019-05-30T05:39:39.515Z,2792.00
2019-05-30T05:40:39.505Z,2876.00
2019-05-30T05:41:39.504Z,2844.00
2019-05-30T05:42:39.493Z,2896.00
2019-05-30T05:43:39.514Z,2936.00
2019-05-30T05:44:39.469Z,3132.00
2019-05-30T05:45:39.465Z,3344.00
2019-05-30T05:46:39.444Z,3776.00
2019-05-30T05:47:39.456Z,4232.00
2019-05-30T05:48:39.424Z,4524.00
2019-05-30T05:49:39.463Z,4596.00
2019-05-30T05:50:39.400Z,4600.00
2019-05-30T05:51:39.392Z,4756.00
2019-05-30T05:52:39.384Z,5092.00
2019-05-30T05:53:39.372Z,5596.00
2019-05-30T05:54:39.403Z,6204.00
2019-05-30T05:55:39.385Z,6896.00
2019-05-30T05:56:39.342Z,7468.00
2019-05-30T05:57:39.327Z,7856.00
2019-05-30T05:58:39.322Z,8244.00
2019-05-30T05:59:39.311Z,8212.00
2019-05-30T06:00:39.341Z,7140.00
2019-05-30T06:01:39.300Z,6684.00
2019-05-30T06:02:39.276Z,6648.00
2019-05-30T06:03:39.261Z,6540.00
2019-05-30T06:04:39.258Z,6292.00
2019-05-30T06:05:52.231Z,6124.00
2019-05-30T06:06:40.270Z,6312.00
2019-05-30T06:07:39.227Z,7012.00
2019-05-30T06:08:39.218Z,6868.00
2019-05-30T06:09:39.207Z,7188.00
2019-05-30T06:10:39.194Z,7272.00
2019-05-30T06:11:39.176Z,8384.00
2019-05-30T06:12:39.237Z,8804.00
2019-05-30T06:13:39.157Z,9804.00
2019-05-30T06:14:39.143Z,10976.00
2019-05-30T06:15:39.147Z,10748.00
2019-05-30T06:16:39.145Z,10300.00
2019-05-30T06:17:39.130Z,9760.00
2019-05-30T06:18:39.135Z,8068.00
2019-05-30T06:19:46.359Z,7200.00
2019-05-30T06:20:40.074Z,8380.00
2019-05-30T06:21:52.998Z,11012.00
2019-05-30T06:22:40.078Z,11784.00
2019-05-30T06:23:39.064Z,12460.00
2019-05-30T06:24:39.073Z,12372.00
2019-05-30T06:25:39.024Z,13108.00
2019-05-30T06:26:39.014Z,12684.00
2019-05-30T06:27:39.011Z,15960.00
2019-05-30T06:28:38.994Z,21760.00
2019-05-30T06:29:38.988Z,20000.00
2019-05-30T06:30:39.014Z,16592.00
2019-05-30T06:31:38.961Z,15100.00
2019-05-30T06:32:38.973Z,13348.00
2019-05-30T06:33:38.980Z,11796.00
2019-05-30T06:34:39.967Z,11336.00
2019-05-30T06:35:38.922Z,11044.00
2019-05-30T06:36:38.921Z,10536.00
2019-05-30T06:37:38.901Z,9636.00
2019-05-30T06:38:38.888Z,8572.00
2019-05-30T06:39:38.929Z,8744.00
2019-05-30T06:40:38.881Z,8736.00
2019-05-30T06:41:38.849Z,7464.00
2019-05-30T06:42:38.849Z,6920.00
2019-05-30T06:43:38.863Z,7212.00
2019-05-30T06:44:38.822Z,8104.00
2019-05-30T06:45:38.848Z,9016.00
2019-05-30T06:46:38.805Z,10048.00
2019-05-30T06:47:38.789Z,11600.00
2019-05-30T06:48:38.795Z,12392.00
2019-05-30T06:49:38.775Z,11404.00
2019-05-30T06:50:38.813Z,12284.00
2019-05-30T06:51:38.795Z,13644.00
2019-05-30T06:52:38.735Z,13752.00
2019-05-30T06:53:38.736Z,14464.00
2019-05-30T06:54:38.715Z,16176.00
2019-05-30T06:55:38.705Z,17028.00
2019-05-30T06:56:38.725Z,17632.00
2019-05-30T06:57:38.727Z,19424.00
2019-05-30T06:58:48.065Z,25472.00
2019-05-30T06:59:39.663Z,27136.00
2019-05-30T07:00:38.663Z,20128.00
2019-05-30T07:01:38.639Z,15452.00
2019-05-30T07:02:38.708Z,14688.00
2019-05-30T07:03:38.693Z,14912.00
2019-05-30T07:04:50.961Z,17728.00
2019-05-30T07:05:40.266Z,18112.00
2019-05-30T07:06:38.926Z,17632.00
2019-05-30T07:07:38.744Z,17344.00
2019-05-30T07:08:38.561Z,17728.00
2019-05-30T07:09:38.601Z,17888.00
2019-05-30T07:10:38.553Z,16204.00
2019-05-30T07:11:38.530Z,15652.00
2019-05-30T07:12:38.523Z,14652.00
2019-05-30T07:13:38.511Z,14572.00
2019-05-30T07:14:38.499Z,14484.00
2019-05-30T07:15:38.528Z,13468.00
2019-05-30T07:16:38.502Z,13268.00
2019-05-30T07:17:38.473Z,13300.00
2019-05-30T07:18:38.483Z,12992.00
2019-05-30T07:19:38.440Z,13124.00
2019-05-30T07:20:38.441Z,13588.00
2019-05-30T07:21:38.497Z,14160.00
2019-05-30T07:22:38.416Z,15360.00
2019-05-30T07:23:39.541Z,17280.00
2019-05-30T07:24:38.399Z,18368.00
2019-05-30T07:25:38.402Z,19264.00
2019-05-30T07:26:38.374Z,19360.00
2019-05-30T07:27:38.409Z,19104.00
2019-05-30T07:28:38.346Z,18624.00
2019-05-30T07:29:38.376Z,19200.00
2019-05-30T07:30:38.335Z,19680.00
2019-05-30T07:31:38.318Z,19968.00
2019-05-30T07:32:38.307Z,21408.00
2019-05-30T07:33:38.295Z,23264.00
2019-05-30T07:34:38.326Z,24992.00
2019-05-30T07:35:38.277Z,25280.00
2019-05-30T07:36:38.261Z,24864.00
2019-05-30T07:37:38.286Z,22304.00
2019-05-30T07:38:38.274Z,20448.00
2019-05-30T07:39:38.222Z,19072.00
2019-05-30T07:40:38.253Z,17952.00
2019-05-30T07:41:38.230Z,16500.00
2019-05-30T07:42:38.194Z,15324.00
2019-05-30T07:43:38.256Z,14516.00
2019-05-30T07:44:38.172Z,14208.00
2019-05-30T07:45:38.170Z,14368.00
2019-05-30T07:46:38.155Z,14360.00
2019-05-30T07:47:38.613Z,14552.00
2019-05-30T07:48:38.602Z,14728.00
2019-05-30T07:49:38.698Z,15916.00
2019-05-30T07:50:38.804Z,17464.00
2019-05-30T07:51:39.015Z,19616.00
2019-05-30T07:52:39.024Z,18592.00
2019-05-30T07:53:39.144Z,18272.00
2019-05-30T07:54:39.170Z,18528.00
2019-05-30T07:55:39.116Z,20224.00
2019-05-30T07:56:38.140Z,23040.00
2019-05-30T07:57:41.025Z,27520.00
2019-05-30T07:58:38.028Z,29408.00
2019-05-30T07:59:38.690Z,32096.00
2019-05-30T08:00:38.006Z,37120.00
2019-05-30T08:01:39.609Z,40768.00
2019-05-30T08:02:38.056Z,50752.00
2019-05-30T08:03:38.890Z,110304.00
2019-05-30T08:04:37.966Z,52096.00
2019-05-30T08:05:38.979Z,82560.00
2019-05-30T08:06:37.993Z,107104.00
2019-05-30T08:07:39.002Z,53056.00
2019-05-30T08:08:38.160Z,41568.00
2019-05-30T08:09:39.180Z,57248.00
2019-05-30T08:10:38.212Z,45056.00
2019-05-30T08:11:37.875Z,130944.00
2019-05-30T08:12:38.389Z,88448.00
2019-05-30T08:13:37.862Z,121920.00
2019-05-30T08:14:37.849Z,35904.00
2019-05-30T08:15:43.725Z,35712.00
2019-05-30T08:16:38.822Z,35168.00
2019-05-30T08:17:38.012Z,35072.00
2019-05-30T08:18:37.995Z,36384.00
2019-05-30T08:19:38.266Z,53280.00
2019-05-30T08:20:38.092Z,49248.00
2019-05-30T08:21:38.330Z,42176.00
2019-05-30T08:22:38.321Z,118816.00
2019-05-30T08:23:38.416Z,42624.00
2019-05-30T08:24:38.839Z,44704.00
2019-05-30T08:25:38.487Z,44256.00
2019-05-30T08:26:38.470Z,117824.00
2019-05-30T08:27:38.642Z,43040.00
2019-05-30T08:28:38.675Z,37376.00
2019-05-30T08:29:38.534Z,40192.00
2019-05-30T08:30:38.705Z,37152.00
2019-05-30T08:31:38.800Z,54240.00
2019-05-30T08:32:38.893Z,40608.00
2019-05-30T08:33:37.717Z,42912.00
2019-05-30T08:34:38.748Z,80992.00
2019-05-30T08:35:47.715Z,57376.00
2019-05-30T08:36:39.182Z,53184.00
2019-05-30T08:37:37.604Z,34880.00
2019-05-30T08:38:37.636Z,32864.00
2019-05-30T08:39:37.576Z,44256.00
2019-05-30T08:40:37.813Z,36128.00
2019-05-30T08:41:37.577Z,41856.00
2019-05-30T08:42:38.448Z,66496.00
2019-05-30T08:43:37.650Z,131808.00
2019-05-30T08:44:38.033Z,76768.00
2019-05-30T08:45:37.987Z,102144.00
2019-05-30T08:46:37.928Z,37344.00
2019-05-30T08:47:38.098Z,27232.00
2019-05-30T08:48:38.322Z,23520.00
2019-05-30T08:49:38.241Z,21184.00
2019-05-30T08:50:41.337Z,19840.00
2019-05-30T08:51:38.455Z,18816.00
2019-05-30T08:52:38.633Z,18464.00
2019-05-30T08:53:38.425Z,18176.00
2019-05-30T08:54:38.546Z,17760.00
2019-05-30T08:55:38.503Z,16980.00
2019-05-30T08:56:38.531Z,16584.00
2019-05-30T08:57:38.593Z,16512.00
2019-05-30T08:58:38.664Z,16440.00
2019-05-30T08:59:38.540Z,16368.00
2019-05-30T09:00:37.403Z,16528.00
2019-05-30T09:01:37.749Z,16596.00
2019-05-30T09:02:37.342Z,17056.00
2019-05-30T09:03:38.452Z,17920.00
2019-05-30T09:04:37.920Z,18208.00
2019-05-30T09:05:38.605Z,18336.00
2019-05-30T09:06:37.817Z,18624.00
2019-05-30T09:07:38.279Z,19104.00
2019-05-30T09:08:37.961Z,19840.00
2019-05-30T09:09:38.133Z,20960.00
2019-05-30T09:10:37.824Z,22368.00
2019-05-30T09:11:37.745Z,24672.00
2019-05-30T09:12:38.486Z,27232.00
2019-05-30T09:13:37.718Z,36512.00
2019-05-30T09:14:37.871Z,35968.00
2019-05-30T09:15:37.943Z,37440.00
2019-05-30T09:16:37.187Z,38624.00
2019-05-30T09:17:38.663Z,37152.00
2019-05-30T09:18:38.583Z,34976.00
2019-05-30T09:19:38.441Z,34176.00
2019-05-30T09:20:38.439Z,33152.00
2019-05-30T09:21:38.697Z,32480.00
2019-05-30T09:22:38.064Z,32640.00
2019-05-30T09:23:38.455Z,33216.00
2019-05-30T09:24:38.473Z,33760.00
2019-05-30T09:25:37.251Z,34912.00
2019-05-30T09:26:38.525Z,37152.00
2019-05-30T09:27:37.755Z,39968.00
2019-05-30T09:28:37.746Z,46016.00
2019-05-30T09:29:37.844Z,40736.00
2019-05-30T09:30:38.233Z,38496.00
2019-05-30T09:31:38.083Z,36928.00
2019-05-30T09:32:38.338Z,35232.00
2019-05-30T09:33:38.097Z,33760.00
2019-05-30T09:34:37.015Z,31712.00
2019-05-30T09:35:36.987Z,30592.00
2019-05-30T09:36:36.973Z,29504.00
2019-05-30T09:37:36.984Z,28832.00
2019-05-30T09:38:36.991Z,28416.00
2019-05-30T09:39:36.953Z,28352.00
2019-05-30T09:40:36.969Z,28992.00
2019-05-30T09:41:36.922Z,30016.00
2019-05-30T09:42:36.959Z,31136.00
2019-05-30T09:43:36.902Z,32160.00
2019-05-30T09:44:36.894Z,32960.00
2019-05-30T09:45:36.879Z,34944.00
2019-05-30T09:46:36.871Z,38720.00
2019-05-30T09:47:36.862Z,44544.00
2019-05-30T09:48:36.900Z,42720.00
2019-05-30T09:49:36.850Z,38880.00
2019-05-30T09:50:36.890Z,36352.00
2019-05-30T09:51:36.821Z,34272.00
2019-05-30T09:52:36.807Z,32640.00
2019-05-30T09:53:36.798Z,32064.00
2019-05-30T09:54:36.839Z,32160.00
2019-05-30T09:55:36.818Z,32160.00
2019-05-30T09:56:36.767Z,31232.00
2019-05-30T09:57:36.755Z,30496.00
2019-05-30T09:58:36.793Z,28992.00
2019-05-30T09:59:36.729Z,27552.00
2019-05-30T10:00:36.723Z,26560.00
2019-05-30T10:01:36.781Z,25888.00
2019-05-30T10:02:36.701Z,25568.00
2019-05-30T10:03:36.688Z,25184.00
2019-05-30T10:04:36.707Z,25088.00
2019-05-30T10:05:36.705Z,24928.00
2019-05-30T10:06:36.657Z,25568.00
2019-05-30T10:07:36.649Z,27040.00
2019-05-30T10:08:36.668Z,28800.00
2019-05-30T10:09:36.625Z,30528.00
2019-05-30T10:10:36.635Z,32832.00
2019-05-30T10:11:36.644Z,35968.00
2019-05-30T10:12:36.594Z,69760.00
2019-05-30T10:13:36.615Z,35776.00
2019-05-30T10:14:36.581Z,34944.00
2019-05-30T10:15:36.586Z,35200.00
2019-05-30T10:16:36.560Z,33536.00
2019-05-30T10:17:36.582Z,32192.00
2019-05-30T10:18:36.524Z,30496.00
2019-05-30T10:19:36.512Z,30080.00
2019-05-30T10:20:36.501Z,29696.00
2019-05-30T10:21:36.493Z,29248.00
2019-05-30T10:22:36.483Z,28672.00
2019-05-30T10:23:36.513Z,28352.00
2019-05-30T10:24:36.463Z,28480.00
2019-05-30T10:25:36.448Z,29504.00
2019-05-30T10:26:36.452Z,31232.00
2019-05-30T10:27:36.421Z,33344.00
2019-05-30T10:28:36.410Z,35200.00
2019-05-30T10:29:36.502Z,36288.00
2019-05-30T10:30:36.392Z,37376.00
2019-05-30T10:31:36.383Z,39488.00
2019-05-30T10:32:36.368Z,43360.00
2019-05-30T10:33:36.359Z,56640.00
2019-05-30T10:34:36.339Z,43072.00
2019-05-30T10:35:36.380Z,38656.00
2019-05-30T10:36:44.341Z,36640.00
2019-05-30T10:37:37.324Z,35296.00
2019-05-30T10:38:36.299Z,34144.00
2019-05-30T10:39:36.289Z,32832.00
2019-05-30T10:40:36.320Z,31680.00
2019-05-30T10:41:36.268Z,30880.00
2019-05-30T10:42:36.268Z,30304.00
2019-05-30T10:43:36.262Z,29312.00
2019-05-30T10:44:36.259Z,28384.00
2019-05-30T10:45:38.642Z,27904.00
2019-05-30T10:46:36.288Z,27520.00
2019-05-30T10:47:43.357Z,27520.00
2019-05-30T10:48:36.960Z,27584.00
2019-05-30T10:49:36.970Z,28128.00
2019-05-30T10:50:36.958Z,28928.00
2019-05-30T10:51:36.189Z,29664.00
2019-05-30T10:52:36.174Z,30208.00
2019-05-30T10:53:37.666Z,31264.00
2019-05-30T10:54:36.180Z,38112.00
2019-05-30T10:55:36.117Z,33504.00
2019-05-30T10:56:36.147Z,32992.00
2019-05-30T10:57:36.145Z,31872.00
2019-05-30T10:58:36.095Z,30240.00
2019-05-30T10:59:36.074Z,28576.00
2019-05-30T11:00:36.073Z,27168.00
2019-05-30T11:01:36.074Z,25760.00
2019-05-30T11:02:36.954Z,24512.00
2019-05-30T11:03:36.056Z,23520.00
2019-05-30T11:04:36.048Z,22688.00
2019-05-30T11:05:36.041Z,21920.00
2019-05-30T11:06:35.994Z,21408.00
2019-05-30T11:07:36.022Z,21184.00
2019-05-30T11:08:36.012Z,20992.00
2019-05-30T11:09:35.963Z,20768.00
2019-05-30T11:10:35.962Z,20576.00
2019-05-30T11:11:36.971Z,20768.00
2019-05-30T11:12:35.943Z,20832.00
2019-05-30T11:13:35.933Z,20704.00
2019-05-30T11:14:35.972Z,20640.00
2019-05-30T11:15:35.899Z,20832.00
2019-05-30T11:16:35.881Z,20960.00
2019-05-30T11:17:35.881Z,21312.00
2019-05-30T11:18:35.870Z,21568.00
2019-05-30T11:19:35.860Z,21760.00
2019-05-30T11:20:35.888Z,21792.00
2019-05-30T11:21:35.850Z,21696.00
2019-05-30T11:22:35.820Z,21504.00
2019-05-30T11:23:35.809Z,21120.00
2019-05-30T11:24:35.807Z,20704.00
2019-05-30T11:25:35.799Z,20416.00
2019-05-30T11:26:35.809Z,20224.00
2019-05-30T11:27:35.820Z,20064.00
2019-05-30T11:28:35.777Z,19872.00
2019-05-30T11:29:35.752Z,19680.00
2019-05-30T11:30:35.739Z,19360.00
2019-05-30T11:31:35.727Z,19072.00
2019-05-30T11:32:35.723Z,18752.00
2019-05-30T11:33:35.738Z,18368.00
2019-05-30T11:34:35.697Z,18080.00
2019-05-30T11:35:35.687Z,17792.00
2019-05-30T11:36:35.673Z,17568.00
2019-05-30T11:37:35.660Z,17260.00
2019-05-30T11:38:35.685Z,17248.00
2019-05-30T11:39:35.635Z,17504.00
2019-05-30T11:40:35.626Z,17664.00
2019-05-30T11:41:35.617Z,17920.00
2019-05-30T11:42:35.605Z,18144.00
2019-05-30T11:43:35.604Z,18496.00
2019-05-30T11:44:35.616Z,18944.00
2019-05-30T11:45:35.567Z,19392.00
2019-05-30T11:46:35.554Z,19808.00
2019-05-30T11:47:35.546Z,20288.00
2019-05-30T11:48:35.544Z,21184.00
2019-05-30T11:49:35.572Z,22400.00
2019-05-30T11:50:35.554Z,23552.00
2019-05-30T11:51:35.532Z,24512.00
2019-05-30T11:52:35.491Z,25120.00
2019-05-30T11:53:35.481Z,25536.00
2019-05-30T11:54:35.507Z,25920.00
2019-05-30T11:55:35.460Z,26240.00
2019-05-30T11:56:35.442Z,26432.00
2019-05-30T11:57:35.452Z,26624.00
2019-05-30T11:58:35.423Z,26624.00
2019-05-30T11:59:35.454Z,26496.00
2019-05-30T12:00:35.406Z,26560.00
2019-05-30T12:01:35.402Z,26944.00
2019-05-30T12:02:35.381Z,27104.00
2019-05-30T12:03:35.373Z,27264.00
2019-05-30T12:04:35.361Z,27360.00
2019-05-30T12:05:35.385Z,27392.00
2019-05-30T12:06:35.346Z,27104.00
2019-05-30T12:07:36.693Z,26432.00
2019-05-30T12:08:35.312Z,25696.00
2019-05-30T12:09:35.344Z,25024.00
2019-05-30T12:10:35.299Z,24704.00
2019-05-30T12:11:35.291Z,24672.00
2019-05-30T12:12:35.279Z,24512.00
2019-05-30T12:13:35.290Z,24032.00
2019-05-30T12:14:35.288Z,23392.00
2019-05-30T12:15:35.271Z,22848.00
2019-05-30T12:16:35.403Z,22528.00
2019-05-30T12:17:35.220Z,22496.00